Time;durP1;ratioP1;P1;durP2;ratioP2;P2;SDS_P1;SDS_P2;PMS_P1;PMS_P2;Temp;Humidity;BMP_temperature;BMP_pressure;BME280_temperature;BME280_humidity;BME280_pressure;Samples;Min_cycle;Max_cycle;Signal;HPM_P1;HPM_P2
2022/05/14 00:00:59;;;;;;;7.10;3.28;;;16.30;73.50;;;;;;5013580;28;20033;-69
2022/05/14 00:03:25;;;;;;;7.72;3.15;;;16.30;73.60;;;;;;5014852;28;20038;-69
2022/05/14 00:05:53;;;;;;;7.55;3.10;;;16.30;73.70;;;;;;5012718;28;20397;-69
2022/05/14 00:08:21;;;;;;;5.97;3.45;;;16.20;73.80;;;;;;5013376;28;20052;-68
2022/05/14 00:13:30;;;;;;;7.18;3.53;;;16.20;73.90;;;;;;5014117;28;20045;-69
2022/05/14 00:15:56;;;;;;;7.65;3.55;;;16.20;73.90;;;;;;5013746;28;20034;-69
2022/05/14 00:18:23;;;;;;;4.55;2.90;;;16.20;74.10;;;;;;5014656;28;20515;-70
2022/05/14 00:20:49;;;;;;;6.30;3.13;;;16.10;74.20;;;;;;5013656;28;20040;-70
2022/05/14 00:23:15;;;;;;;6.97;3.28;;;16.10;74.40;;;;;;5012756;28;20034;-68
2022/05/14 00:25:42;;;;;;;4.72;2.92;;;16.10;74.60;;;;;;5010622;28;20036;-68
2022/05/14 00:28:07;;;;;;;6.03;3.17;;;16.10;74.70;;;;;;4999639;28;20139;-68
2022/05/14 00:30:34;;;;;;;5.93;3.50;;;16.10;74.90;;;;;;5003368;28;20169;-68
2022/05/14 00:32:59;;;;;;;6.55;3.10;;;16.10;75.10;;;;;;5013079;28;20042;-68
2022/05/14 00:35:25;;;;;;;5.97;2.97;;;16.10;75.10;;;;;;5011317;28;20026;-68
2022/05/14 00:37:50;;;;;;;12.10;3.55;;;16.10;75.30;;;;;;5013772;28;20034;-68
2022/05/14 00:40:29;;;;;;;6.55;3.95;;;16.10;75.40;;;;;;5010733;28;20030;-67
2022/05/14 00:42:54;;;;;;;4.53;3.33;;;16.10;75.30;;;;;;5009252;28;20043;-68
2022/05/14 00:45:21;;;;;;;6.20;3.65;;;16.00;75.40;;;;;;5000601;28;20397;-68
2022/05/14 00:47:50;;;;;;;7.53;3.58;;;16.00;75.70;;;;;;5012509;28;20042;-68
2022/05/14 00:50:32;;;;;;;6.70;3.35;;;16.00;75.70;;;;;;5006234;28;20053;-67
2022/05/14 00:53:12;;;;;;;9.10;3.50;;;16.00;75.90;;;;;;4995834;28;20129;-67
2022/05/14 00:55:39;;;;;;;5.57;3.17;;;15.90;75.90;;;;;;5012503;28;20026;-68
2022/05/14 00:58:05;;;;;;;7.22;3.20;;;15.90;75.80;;;;;;5013683;28;20037;-68
2022/05/14 01:00:32;;;;;;;6.43;3.17;;;15.90;76.10;;;;;;5011937;28;20030;-68
2022/05/14 01:02:57;;;;;;;7.43;3.30;;;15.90;76.10;;;;;;5011767;28;20034;-68
2022/05/14 01:05:24;;;;;;;5.53;3.38;;;15.90;76.20;;;;;;5011177;28;20026;-68
2022/05/14 01:07:52;;;;;;;7.57;3.40;;;15.90;76.40;;;;;;5013119;28;20042;-68
2022/05/14 01:10:21;;;;;;;8.68;3.67;;;15.90;76.50;;;;;;5012386;28;20025;-68
2022/05/14 01:12:52;;;;;;;6.88;3.08;;;15.90;76.50;;;;;;5013204;28;20037;-67
2022/05/14 01:15:20;;;;;;;5.13;3.17;;;15.90;76.40;;;;;;5011646;28;20070;-68
2022/05/14 01:17:46;;;;;;;7.90;4.03;;;15.90;76.30;;;;;;5013667;28;20622;-68
2022/05/14 01:20:14;;;;;;;4.78;3.10;;;15.90;76.50;;;;;;5011161;28;20137;-67
2022/05/14 01:23:05;;;;;;;7.65;3.33;;;15.90;76.80;;;;;;5013089;28;20033;-67
2022/05/14 01:26:30;;;;;;;7.88;3.65;;;15.90;76.70;;;;;;5008853;28;20041;-67
2022/05/14 01:29:02;;;;;;;5.55;3.20;;;16.00;76.60;;;;;;5007650;28;20053;-67
2022/05/14 01:31:29;;;;;;;5.88;2.97;;;16.00;76.70;;;;;;5004708;28;20061;-67
2022/05/14 01:34:05;;;;;;;5.53;3.17;;;16.00;76.60;;;;;;4994039;28;20489;-67
2022/05/14 01:36:32;;;;;;;6.93;3.10;;;16.00;76.60;;;;;;5011529;28;20433;-67
2022/05/14 01:38:58;;;;;;;8.27;3.80;;;16.00;76.50;;;;;;5012751;28;20053;-68
2022/05/14 01:41:23;;;;;;;6.00;3.55;;;16.00;76.50;;;;;;5011438;28;20092;-68
2022/05/14 01:43:49;;;;;;;7.47;4.38;;;16.00;76.60;;;;;;5012497;28;20136;-69
2022/05/14 01:46:15;;;;;;;4.78;3.17;;;16.00;76.80;;;;;;5010768;28;20192;-69
2022/05/14 01:48:40;;;;;;;5.28;3.55;;;16.00;76.90;;;;;;5009900;28;20037;-69
2022/05/14 01:51:06;;;;;;;8.38;3.08;;;16.10;76.90;;;;;;5011206;28;20030;-69
2022/05/14 01:53:32;;;;;;;4.80;3.15;;;16.00;77.40;;;;;;4994976;28;20042;-69
2022/05/14 01:55:58;;;;;;;6.47;3.50;;;16.10;77.00;;;;;;5001900;28;20029;-69
2022/05/14 01:58:36;;;;;;;7.82;3.72;;;16.00;76.90;;;;;;5012724;28;20026;-69
2022/05/14 02:01:26;;;;;;;5.65;3.22;;;16.10;77.10;;;;;;5011946;28;20398;-69
2022/05/14 02:03:58;;;;;;;6.85;2.95;;;16.10;77.00;;;;;;5005126;28;20040;-69
2022/05/14 02:06:26;;;;;;;8.25;3.05;;;16.20;76.90;;;;;;5012277;28;20038;-67
2022/05/14 02:08:52;;;;;;;6.07;3.08;;;16.20;76.90;;;;;;5012273;28;20050;-67
2022/05/14 02:11:18;;;;;;;4.47;3.08;;;16.20;76.90;;;;;;4992869;28;20030;-67
2022/05/14 02:13:46;;;;;;;7.22;3.65;;;16.20;76.90;;;;;;4996085;28;20041;-67
2022/05/14 02:16:12;;;;;;;6.70;3.38;;;16.20;76.80;;;;;;5000343;28;20121;-67
2022/05/14 02:18:37;;;;;;;5.72;3.88;;;16.20;76.60;;;;;;4997740;28;20144;-67
2022/05/14 02:21:04;;;;;;;8.00;3.35;;;16.20;76.40;;;;;;5009190;28;20037;-67
2022/05/14 02:23:31;;;;;;;5.38;3.15;;;16.20;76.50;;;;;;5006627;28;20034;-67
2022/05/14 02:25:57;;;;;;;8.50;3.28;;;16.20;76.50;;;;;;4995277;28;20038;-67
2022/05/14 02:28:23;;;;;;;4.90;3.13;;;16.20;76.50;;;;;;4997423;28;20057;-67
2022/05/14 02:30:49;;;;;;;4.88;3.05;;;16.20;76.40;;;;;;5011121;28;20061;-67
2022/05/14 02:33:15;;;;;;;7.15;3.75;;;16.20;76.40;;;;;;5011719;28;20065;-66
2022/05/14 02:35:41;;;;;;;5.53;2.80;;;16.20;76.30;;;;;;5010634;28;20092;-66
2022/05/14 02:38:08;;;;;;;6.80;3.50;;;16.20;76.30;;;;;;5011196;28;20109;-66
2022/05/14 02:40:34;;;;;;;4.90;3.15;;;16.20;76.20;;;;;;5009956;28;20036;-68
2022/05/14 02:42:59;;;;;;;9.05;3.08;;;16.20;76.20;;;;;;5012104;28;20548;-68
2022/05/14 02:45:25;;;;;;;12.60;3.50;;;16.20;76.20;;;;;;5010789;28;20108;-68
2022/05/14 02:47:51;;;;;;;5.47;2.88;;;16.20;76.10;;;;;;5011089;28;20029;-68
2022/05/14 02:50:17;;;;;;;7.72;3.13;;;16.20;76.00;;;;;;5008557;28;20072;-68
2022/05/14 02:52:43;;;;;;;5.43;3.50;;;16.20;75.90;;;;;;5002214;28;20053;-68
2022/05/14 02:55:09;;;;;;;5.88;3.10;;;16.20;75.90;;;;;;5005562;28;20485;-68
2022/05/14 02:57:35;;;;;;;6.32;3.22;;;16.20;76.40;;;;;;5012177;28;20030;-68
2022/05/14 03:00:02;;;;;;;6.38;2.92;;;16.20;75.80;;;;;;5010312;28;20558;-68
2022/05/14 03:02:28;;;;;;;5.03;3.03;;;16.20;75.80;;;;;;5011483;28;20108;-68
2022/05/14 03:04:53;;;;;;;5.63;2.80;;;16.20;75.80;;;;;;5010121;28;20108;-69
2022/05/14 03:07:19;;;;;;;7.65;2.80;;;16.20;75.80;;;;;;5010882;28;20030;-69
2022/05/14 03:09:45;;;;;;;4.18;2.88;;;16.20;75.80;;;;;;5010070;28;20033;-68
2022/05/14 03:12:13;;;;;;;5.93;3.03;;;16.20;75.80;;;;;;5011964;28;20026;-68
2022/05/14 03:14:39;;;;;;;4.45;3.10;;;16.20;75.90;;;;;;5009652;28;20030;-68
2022/05/14 03:17:05;;;;;;;6.55;2.85;;;16.20;76.10;;;;;;5010937;28;20018;-68
2022/05/14 03:19:31;;;;;;;6.32;3.45;;;16.20;76.00;;;;;;5009130;28;20041;-68
2022/05/14 03:21:57;;;;;;;5.97;3.17;;;16.10;75.90;;;;;;5006759;28;20026;-68
2022/05/14 03:24:23;;;;;;;4.63;3.05;;;16.10;75.90;;;;;;5002371;28;20022;-68
2022/05/14 03:26:49;;;;;;;4.97;3.03;;;16.20;75.90;;;;;;5011402;28;20030;-67
2022/05/14 03:29:15;;;;;;;5.28;2.67;;;16.10;75.90;;;;;;5009632;28;20501;-68
2022/05/14 03:31:41;;;;;;;7.60;3.47;;;16.10;76.20;;;;;;5011239;28;20045;-68
2022/05/14 03:34:10;;;;;;;5.47;3.50;;;16.10;76.20;;;;;;5009746;28;20497;-68
2022/05/14 03:36:36;;;;;;;6.30;3.30;;;16.00;76.00;;;;;;5009926;28;20026;-67
2022/05/14 03:39:02;;;;;;;6.47;3.00;;;16.00;76.10;;;;;;5008239;28;20058;-67
2022/05/14 03:41:28;;;;;;;6.38;3.42;;;16.00;76.10;;;;;;5011117;28;20060;-67
2022/05/14 03:43:54;;;;;;;6.07;2.80;;;16.00;76.20;;;;;;5010743;28;20026;-67
2022/05/14 03:46:19;;;;;;;7.40;3.15;;;16.00;76.50;;;;;;5010706;28;20040;-67
2022/05/14 03:48:45;;;;;;;4.65;3.13;;;15.90;76.40;;;;;;5011492;28;20026;-67
2022/05/14 03:51:10;;;;;;;6.10;3.03;;;15.90;76.50;;;;;;5008314;28;20033;-67
2022/05/14 03:53:37;;;;;;;7.45;4.25;;;15.90;76.50;;;;;;5009880;28;20092;-68
2022/05/14 03:56:04;;;;;;;7.80;2.90;;;15.90;76.50;;;;;;4994903;28;20026;-67
2022/05/14 03:58:30;;;;;;;9.25;3.58;;;15.90;76.60;;;;;;5006192;28;20105;-68
2022/05/14 04:00:56;;;;;;;8.48;2.85;;;15.90;76.80;;;;;;4998388;28;20080;-68
2022/05/14 04:03:21;;;;;;;5.68;3.08;;;15.90;76.90;;;;;;5010701;28;20034;-75
2022/05/14 04:05:47;;;;;;;7.03;3.15;;;15.90;77.00;;;;;;4997171;28;20053;-77
2022/05/14 04:08:12;;;;;;;5.15;3.40;;;15.90;77.10;;;;;;5011399;28;20394;-74
2022/05/14 04:10:38;;;;;;;7.32;3.22;;;15.90;77.10;;;;;;5011123;28;20076;-71
2022/05/14 04:13:03;;;;;;;9.82;3.88;;;15.90;77.20;;;;;;5014619;28;20038;-70
2022/05/14 04:15:29;;;;;;;7.05;3.17;;;15.90;77.40;;;;;;5012580;28;20079;-71
2022/05/14 04:17:55;;;;;;;8.93;3.80;;;15.90;77.30;;;;;;5013516;28;20496;-72
2022/05/14 04:20:22;;;;;;;7.85;3.05;;;15.90;77.40;;;;;;5006609;28;20037;-72
2022/05/14 04:22:48;;;;;;;7.22;3.10;;;15.90;77.60;;;;;;5013332;28;20026;-71
2022/05/14 04:25:14;;;;;;;4.35;2.97;;;15.90;77.50;;;;;;5006262;28;20496;-71
2022/05/14 04:27:41;;;;;;;6.68;3.20;;;15.90;77.60;;;;;;5013285;28;20034;-71
2022/05/14 04:30:07;;;;;;;6.65;4.18;;;15.90;77.60;;;;;;5013063;28;20034;-70
2022/05/14 04:32:32;;;;;;;7.65;2.97;;;16.00;77.40;;;;;;5013949;28;20041;-70
2022/05/14 04:34:58;;;;;;;9.55;3.33;;;15.90;77.40;;;;;;5013167;28;20022;-71
2022/05/14 04:37:23;;;;;;;5.97;3.00;;;16.00;77.70;;;;;;5013417;28;20382;-68
2022/05/14 04:39:49;;;;;;;6.63;3.35;;;16.00;77.80;;;;;;5011286;28;20026;-69
2022/05/14 04:42:15;;;;;;;5.82;3.08;;;16.00;77.80;;;;;;5013883;28;20113;-68
2022/05/14 04:44:40;;;;;;;5.20;3.00;;;16.00;77.70;;;;;;5010471;28;20030;-68
2022/05/14 04:47:06;;;;;;;5.90;3.05;;;16.00;77.70;;;;;;5006303;28;20049;-69
2022/05/14 04:49:31;;;;;;;6.50;3.75;;;16.10;77.80;;;;;;4997343;28;20116;-68
2022/05/14 04:51:57;;;;;;;6.50;3.25;;;16.10;77.80;;;;;;5013053;28;20048;-68
2022/05/14 04:54:23;;;;;;;4.93;3.10;;;16.10;77.80;;;;;;5013496;28;20033;-69
2022/05/14 04:56:49;;;;;;;7.88;3.70;;;16.10;77.90;;;;;;4997353;28;20026;-69
2022/05/14 04:59:14;;;;;;;7.35;3.90;;;16.20;77.90;;;;;;4997828;28;20075;-69
2022/05/14 05:03:16;;;;;;;8.20;2.92;;;16.20;77.90;;;;;;5011292;28;20022;-69
2022/05/14 05:04:26;;;;;;;8.02;2.95;;;16.20;78.00;;;;;;5009037;28;20418;-69
2022/05/14 05:06:51;;;;;;;7.93;3.00;;;16.20;78.10;;;;;;5004901;28;20034;-68
2022/05/14 05:09:17;;;;;;;4.35;2.92;;;16.20;78.00;;;;;;5008938;28;20124;-68
2022/05/14 05:11:42;;;;;;;8.98;3.60;;;16.20;77.90;;;;;;5001788;28;20045;-69
2022/05/14 05:14:08;;;;;;;10.07;3.13;;;16.30;78.10;;;;;;5004294;28;20026;-69
2022/05/14 05:16:35;;;;;;;6.03;2.95;;;16.30;77.80;;;;;;5013535;28;20444;-69
2022/05/14 05:19:01;;;;;;;5.85;3.25;;;16.30;77.70;;;;;;5000593;28;20034;-69
2022/05/14 05:21:26;;;;;;;5.20;3.33;;;16.30;77.50;;;;;;5011368;28;20080;-69
2022/05/14 05:23:52;;;;;;;5.45;2.85;;;16.30;77.20;;;;;;5011873;28;20026;-69
2022/05/14 05:26:17;;;;;;;8.98;3.35;;;16.40;77.10;;;;;;5011651;28;20021;-69
2022/05/14 05:28:43;;;;;;;7.93;3.15;;;16.40;77.10;;;;;;5013044;28;20634;-69
2022/05/14 05:31:08;;;;;;;6.65;2.75;;;16.40;77.00;;;;;;5011452;28;20120;-69
2022/05/14 05:33:33;;;;;;;8.32;3.40;;;16.40;77.00;;;;;;5012818;28;20041;-69
2022/05/14 05:35:59;;;;;;;5.53;3.05;;;16.40;77.10;;;;;;5011262;28;20049;-68
2022/05/14 05:38:24;;;;;;;7.10;3.05;;;16.50;77.10;;;;;;5012758;28;20038;-69
2022/05/14 05:40:52;;;;;;;6.40;2.95;;;16.50;76.80;;;;;;5008624;28;20120;-69
2022/05/14 05:43:17;;;;;;;6.55;2.88;;;16.60;76.60;;;;;;5012889;28;20469;-69
2022/05/14 05:45:46;;;;;;;5.53;3.50;;;16.50;76.50;;;;;;5009871;28;20018;-69
2022/05/14 05:48:11;;;;;;;7.05;3.00;;;16.60;76.50;;;;;;5011064;28;20045;-68
2022/05/14 05:50:38;;;;;;;6.32;2.80;;;16.60;76.50;;;;;;5008279;28;20021;-67
2022/05/14 05:53:04;;;;;;;12.90;3.28;;;16.70;76.50;;;;;;5009857;28;20091;-68
2022/05/14 05:58:17;;;;;;;9.77;2.90;;;16.70;76.10;;;;;;5013858;28;20106;-69
2022/05/14 06:00:43;;;;;;;8.20;2.83;;;16.70;75.80;;;;;;5003687;28;20034;-69
2022/05/14 06:03:09;;;;;;;7.30;3.10;;;16.80;75.80;;;;;;5004964;28;20396;-69
2022/05/14 06:05:34;;;;;;;7.10;2.70;;;16.80;75.60;;;;;;5009882;28;20109;-68
2022/05/14 06:08:00;;;;;;;5.43;2.70;;;16.80;75.60;;;;;;5011794;28;20579;-69
2022/05/14 06:10:25;;;;;;;6.43;3.05;;;16.90;75.70;;;;;;5002202;28;20030;-68
2022/05/14 06:12:51;;;;;;;5.47;2.90;;;17.00;75.40;;;;;;5002607;28;20137;-68
2022/05/14 06:15:18;;;;;;;6.07;2.78;;;17.10;74.90;;;;;;5015268;28;20022;-68
2022/05/14 06:17:44;;;;;;;8.10;3.50;;;17.20;75.00;;;;;;5010169;28;20032;-69
2022/05/14 06:20:13;;;;;;;7.85;3.10;;;17.30;75.10;;;;;;5005558;28;20027;-67
2022/05/14 06:22:39;;;;;;;7.65;2.63;;;17.40;74.80;;;;;;5001772;28;20025;-67
2022/05/14 06:25:06;;;;;;;8.25;3.90;;;17.40;74.70;;;;;;5009278;28;20030;-68
2022/05/14 06:27:31;;;;;;;9.63;2.97;;;17.50;74.70;;;;;;5009774;28;20079;-67
2022/05/14 06:29:57;;;;;;;5.65;3.20;;;17.50;74.10;;;;;;4997743;28;20033;-68
2022/05/14 06:32:22;;;;;;;10.40;3.13;;;17.50;74.00;;;;;;5017300;28;20037;-68
2022/05/14 06:34:48;;;;;;;9.98;2.78;;;17.50;74.00;;;;;;5000784;28;20453;-68
2022/05/14 06:37:13;;;;;;;7.00;3.20;;;17.60;73.90;;;;;;5010810;28;20465;-67
2022/05/14 06:39:40;;;;;;;5.68;3.13;;;17.60;73.80;;;;;;5019863;28;20022;-67
2022/05/14 06:42:06;;;;;;;9.20;2.80;;;17.60;73.60;;;;;;5010228;28;20134;-67
2022/05/14 06:44:31;;;;;;;6.63;2.92;;;17.80;73.60;;;;;;5010698;28;20493;-68
2022/05/14 06:46:57;;;;;;;5.00;2.70;;;17.80;73.80;;;;;;5012329;28;20031;-68
2022/05/14 06:49:23;;;;;;;7.70;3.53;;;17.80;73.50;;;;;;5012888;28;20025;-67
2022/05/14 06:51:49;;;;;;;5.93;3.53;;;17.90;73.40;;;;;;5014862;28;20025;-68
2022/05/14 06:54:15;;;;;;;5.32;3.10;;;18.00;73.10;;;;;;5010252;28;20030;-68
2022/05/14 06:56:43;;;;;;;9.82;3.15;;;18.00;73.00;;;;;;5016082;28;20025;-68
2022/05/14 06:59:10;;;;;;;7.80;3.55;;;18.10;73.30;;;;;;5009660;28;20038;-68
2022/05/14 07:01:38;;;;;;;7.82;3.00;;;18.10;73.10;;;;;;5009601;28;20071;-68
2022/05/14 07:06:50;;;;;;;5.65;3.08;;;18.30;72.90;;;;;;5004561;28;20697;-67
2022/05/14 07:09:23;;;;;;;7.32;3.92;;;18.40;72.90;;;;;;5014188;28;20045;-68
2022/05/14 07:11:51;;;;;;;10.20;3.00;;;18.50;72.90;;;;;;5017989;28;20481;-67
2022/05/14 07:14:18;;;;;;;7.47;3.30;;;18.50;73.10;;;;;;4997336;28;20398;-68
2022/05/14 07:16:45;;;;;;;8.43;3.00;;;18.60;72.90;;;;;;5005101;28;20363;-68
2022/05/14 07:19:11;;;;;;;6.68;3.78;;;18.60;72.80;;;;;;5010834;28;20029;-68
2022/05/14 07:21:39;;;;;;;11.02;3.67;;;18.70;72.50;;;;;;5008762;28;20492;-68
2022/05/14 07:24:07;;;;;;;7.03;3.30;;;18.70;72.50;;;;;;5001614;28;20355;-68
2022/05/14 07:26:34;;;;;;;13.15;3.70;;;18.70;74.90;;;;;;5016079;28;20033;-68
2022/05/14 07:29:00;;;;;;;7.97;3.33;;;18.90;74.00;;;;;;5000885;28;20026;-67
2022/05/14 07:31:26;;;;;;;9.63;3.40;;;18.90;73.10;;;;;;5015892;28;20476;-69
2022/05/14 07:33:51;;;;;;;8.32;3.30;;;19.00;73.30;;;;;;4995666;28;20136;-66
2022/05/14 07:36:25;;;;;;;6.22;3.45;;;19.10;73.00;;;;;;5016732;28;20079;-64
2022/05/14 07:38:53;;;;;;;8.60;3.30;;;19.20;72.50;;;;;;5004167;28;20497;-65
2022/05/14 07:41:18;;;;;;;10.07;3.40;;;19.30;72.30;;;;;;5014520;28;20034;-65
2022/05/14 07:43:47;;;;;;;6.97;3.20;;;19.50;72.80;;;;;;5016871;28;20056;-64
2022/05/14 07:46:19;;;;;;;7.90;3.38;;;19.60;72.10;;;;;;5011940;28;20463;-66
2022/05/14 07:48:45;;;;;;;8.07;3.10;;;19.70;72.10;;;;;;5013826;28;20377;-65
2022/05/14 07:51:11;;;;;;;6.72;2.83;;;19.80;71.70;;;;;;5001378;28;20117;-65
2022/05/14 07:53:37;;;;;;;9.23;3.40;;;19.90;71.50;;;;;;5015127;28;20493;-67
2022/05/14 07:56:05;;;;;;;10.50;3.35;;;20.00;71.50;;;;;;5003966;28;20037;-66
2022/05/14 07:58:32;;;;;;;10.00;3.90;;;20.10;71.40;;;;;;5005188;28;20018;-67
2022/05/14 08:00:58;;;;;;;8.70;3.58;;;20.20;70.90;;;;;;5010113;28;20033;-66
2022/05/14 08:03:24;;;;;;;8.95;3.72;;;20.30;70.30;;;;;;5013089;28;20039;-66
2022/05/14 08:05:53;;;;;;;6.82;3.78;;;20.40;69.70;;;;;;5011899;28;20385;-67
2022/05/14 08:08:19;;;;;;;7.57;3.95;;;20.40;69.60;;;;;;5012739;28;20556;-65
2022/05/14 08:10:45;;;;;;;10.50;3.30;;;20.40;69.30;;;;;;5007425;28;20030;-66
2022/05/14 08:13:15;;;;;;;32.13;4.13;;;20.40;69.10;;;;;;5019808;28;20038;-66
2022/05/14 08:15:42;;;;;;;6.88;2.78;;;20.40;69.10;;;;;;5008271;28;20096;-66
2022/05/14 08:18:07;;;;;;;13.88;3.97;;;20.50;69.50;;;;;;5005698;28;20026;-66
2022/05/14 08:20:34;;;;;;;10.40;3.53;;;20.50;69.20;;;;;;5016646;28;20358;-66
2022/05/14 08:25:56;;;;;;;8.35;3.03;;;20.60;69.30;;;;;;4988408;28;20031;-66
2022/05/14 08:28:22;;;;;;;8.35;3.30;;;20.70;69.50;;;;;;4995900;28;20482;-66
2022/05/14 08:30:48;;;;;;;5.68;3.08;;;20.80;69.40;;;;;;5002494;28;20030;-66
2022/05/14 08:33:14;;;;;;;11.25;3.53;;;20.80;69.30;;;;;;5003358;28;20038;-66
2022/05/14 08:35:40;;;;;;;11.50;3.20;;;20.90;69.00;;;;;;5004715;28;20026;-66
2022/05/14 08:38:08;;;;;;;10.20;3.10;;;20.90;68.70;;;;;;5002145;28;20034;-66
2022/05/14 08:40:41;;;;;;;8.18;3.22;;;21.00;68.40;;;;;;5003024;28;20027;-66
2022/05/14 08:43:18;;;;;;;7.47;3.17;;;21.00;67.90;;;;;;5003626;28;20081;-66
2022/05/14 08:45:44;;;;;;;9.20;3.03;;;21.10;67.60;;;;;;5010682;28;20029;-65
2022/05/14 08:48:24;;;;;;;9.85;3.72;;;21.10;67.10;;;;;;5007578;28;20105;-65
2022/05/14 08:51:14;;;;;;;9.13;3.30;;;21.20;67.00;;;;;;5001715;28;20022;-66
2022/05/14 08:53:42;;;;;;;10.27;2.90;;;21.20;66.20;;;;;;5009266;28;20053;-66
2022/05/14 08:56:21;;;;;;;7.65;3.13;;;21.20;66.40;;;;;;4998611;28;20580;-66
2022/05/14 08:59:02;;;;;;;6.22;3.00;;;21.20;66.30;;;;;;5005261;28;20033;-67
2022/05/14 09:01:31;;;;;;;9.77;3.40;;;21.30;65.80;;;;;;5002074;28;20038;-67
2022/05/14 09:03:57;;;;;;;8.05;2.88;;;21.30;66.50;;;;;;5009067;28;20046;-66
2022/05/14 09:06:22;;;;;;;8.90;3.88;;;21.40;66.20;;;;;;5005404;28;20014;-67
2022/05/14 09:08:49;;;;;;;6.57;2.97;;;21.40;65.80;;;;;;5012416;28;20436;-67
2022/05/14 09:11:21;;;;;;;6.70;3.58;;;21.40;65.50;;;;;;5021664;28;20036;-67
2022/05/14 09:13:51;;;;;;;6.00;2.92;;;21.40;64.90;;;;;;4993790;28;20046;-67
2022/05/14 09:16:30;;;;;;;13.70;3.83;;;21.30;65.00;;;;;;5004773;28;20029;-67
2022/05/14 09:18:56;;;;;;;8.80;4.05;;;21.30;65.20;;;;;;5010958;28;20041;-67
2022/05/14 09:21:36;;;;;;;9.32;3.13;;;21.30;65.50;;;;;;5012798;28;20646;-67
2022/05/14 09:24:16;;;;;;;8.35;2.95;;;21.30;65.30;;;;;;5009319;28;20041;-67
2022/05/14 09:26:42;;;;;;;8.00;3.33;;;21.30;65.10;;;;;;5013160;28;20021;-67
2022/05/14 09:29:31;;;;;;;8.07;3.47;;;21.40;65.20;;;;;;5018345;28;20041;-67
2022/05/14 09:32:03;;;;;;;7.55;3.70;;;21.40;65.00;;;;;;5013202;28;20033;-67
2022/05/14 09:34:31;;;;;;;9.25;3.35;;;21.40;63.90;;;;;;5013323;28;20038;-66
2022/05/14 09:37:16;;;;;;;6.15;3.20;;;21.30;63.30;;;;;;5010280;28;20030;-66
2022/05/14 09:39:42;;;;;;;10.88;3.58;;;21.20;63.60;;;;;;5001066;28;20026;-65
2022/05/14 09:42:29;;;;;;;8.48;2.75;;;21.10;63.00;;;;;;5020067;28;20014;-66
2022/05/14 09:44:57;;;;;;;9.00;3.05;;;21.20;62.40;;;;;;5032978;28;20041;-67
2022/05/14 09:47:30;;;;;;;9.35;3.20;;;21.10;62.40;;;;;;5031288;28;20064;-66
2022/05/14 09:49:59;;;;;;;11.80;3.20;;;21.20;62.10;;;;;;5015950;28;20075;-65
2022/05/14 09:52:29;;;;;;;10.98;4.63;;;21.20;61.00;;;;;;5001838;28;20049;-66
2022/05/14 09:54:56;;;;;;;9.88;3.10;;;21.20;60.40;;;;;;5012499;28;20069;-66
2022/05/14 09:57:55;;;;;;;8.88;3.35;;;21.20;60.60;;;;;;5011834;28;20097;-66
2022/05/14 10:00:33;;;;;;;9.23;2.92;;;21.30;60.80;;;;;;5010626;28;20034;-66
2022/05/14 10:03:23;;;;;;;10.15;2.97;;;21.30;60.80;;;;;;4996930;28;20543;-66
2022/05/14 10:05:52;;;;;;;8.18;3.05;;;21.40;60.10;;;;;;5014404;28;20038;-66
2022/05/14 10:08:44;;;;;;;8.88;3.03;;;21.40;60.00;;;;;;5012103;28;20042;-66
2022/05/14 10:11:22;;;;;;;6.82;3.45;;;21.50;60.20;;;;;;5028724;28;20113;-66
2022/05/14 10:14:20;;;;;;;12.07;3.53;;;21.50;59.90;;;;;;5010510;28;20038;-66
2022/05/14 10:16:58;;;;;;;8.18;3.10;;;21.50;59.60;;;;;;5003352;28;20120;-66
2022/05/14 10:19:35;;;;;;;12.95;3.70;;;21.50;61.10;;;;;;4992905;28;20034;-66
2022/05/14 10:26:44;;;;;;;11.18;3.38;;;21.60;60.30;;;;;;5016820;28;20017;-66
2022/05/14 10:28:27;;;;;;;7.10;2.83;;;21.80;59.30;;;;;;5011990;28;20125;-66
2022/05/14 10:31:01;;;;;;;5.97;2.47;;;21.80;58.90;;;;;;5004583;28;20053;-66
2022/05/14 10:33:30;;;;;;;9.13;3.63;;;21.70;58.50;;;;;;5016110;28;20037;-66
2022/05/14 10:36:05;;;;;;;6.53;3.10;;;21.70;58.60;;;;;;5019218;28;20080;-67
2022/05/14 10:38:43;;;;;;;8.55;2.88;;;21.60;57.90;;;;;;5007788;28;20109;-65
2022/05/14 10:41:09;;;;;;;6.63;2.63;;;21.60;57.80;;;;;;5010612;28;20077;-66
2022/05/14 10:43:53;;;;;;;7.47;3.00;;;21.60;57.80;;;;;;4999482;28;20026;-66
2022/05/14 10:46:22;;;;;;;8.25;2.78;;;21.70;57.70;;;;;;5008577;28;20377;-66
2022/05/14 10:49:15;;;;;;;6.82;2.78;;;21.70;57.60;;;;;;5016695;28;20049;-68
2022/05/14 10:51:46;;;;;;;14.10;2.90;;;21.80;58.00;;;;;;5023488;28;20113;-68
2022/05/14 10:54:15;;;;;;;7.05;3.00;;;21.80;57.50;;;;;;5011038;28;20041;-66
2022/05/14 10:57:02;;;;;;;10.20;2.80;;;21.80;57.70;;;;;;5018633;28;20130;-66
2022/05/14 10:59:42;;;;;;;11.13;2.95;;;21.90;57.30;;;;;;5015783;28;20026;-66
2022/05/14 11:02:13;;;;;;;10.55;3.13;;;21.90;56.80;;;;;;5003928;28;20026;-66
2022/05/14 11:04:39;;;;;;;6.28;2.40;;;21.90;57.50;;;;;;5004128;28;20029;-67
2022/05/14 11:07:08;;;;;;;8.70;3.55;;;21.90;57.50;;;;;;4998824;28;20025;-67
2022/05/14 11:09:34;;;;;;;7.65;2.90;;;22.00;57.70;;;;;;5011881;28;20048;-66
2022/05/14 11:12:03;;;;;;;7.40;2.97;;;22.00;57.40;;;;;;4999923;28;20596;-66
2022/05/14 11:14:45;;;;;;;6.18;3.33;;;21.90;57.10;;;;;;5004517;28;20034;-64
2022/05/14 11:17:26;;;;;;;6.70;3.40;;;21.90;57.70;;;;;;5019434;28;20114;-66
2022/05/14 11:20:13;;;;;;;9.70;2.83;;;21.90;57.60;;;;;;5005942;28;20121;-66
2022/05/14 11:22:42;;;;;;;8.30;3.28;;;21.90;57.30;;;;;;4999404;28;20030;-67
2022/05/14 11:25:10;;;;;;;6.18;3.03;;;21.90;57.40;;;;;;5016597;28;20033;-67
2022/05/14 11:27:38;;;;;;;9.43;3.63;;;21.90;57.50;;;;;;5014809;28;20034;-67
2022/05/14 11:30:11;;;;;;;8.48;3.13;;;22.00;57.70;;;;;;5004221;28;20026;-66
2022/05/14 11:32:48;;;;;;;6.57;2.90;;;22.10;57.40;;;;;;4995382;28;20509;-66
2022/05/14 11:35:15;;;;;;;8.25;3.00;;;22.10;58.00;;;;;;5003737;28;20041;-67
2022/05/14 11:37:51;;;;;;;7.13;3.20;;;22.10;57.70;;;;;;4995519;28;20046;-66
2022/05/14 11:40:19;;;;;;;12.77;3.60;;;22.10;57.70;;;;;;5007589;28;20042;-66
2022/05/14 11:42:47;;;;;;;7.68;3.58;;;22.10;57.60;;;;;;5013942;28;20485;-66
2022/05/14 11:45:28;;;;;;;7.82;3.28;;;22.10;57.40;;;;;;4999422;28;20022;-66
2022/05/14 11:48:11;;;;;;;15.82;3.70;;;22.20;57.60;;;;;;5013648;28;20076;-66
2022/05/14 11:50:50;;;;;;;8.23;3.08;;;22.20;58.30;;;;;;5013343;28;20030;-66
2022/05/14 11:53:24;;;;;;;6.13;3.08;;;22.30;58.20;;;;;;5005046;28;20052;-66
2022/05/14 11:55:55;;;;;;;7.63;3.35;;;22.30;57.70;;;;;;5012455;28;20069;-66
2022/05/14 11:58:41;;;;;;;7.22;2.80;;;22.40;57.10;;;;;;5012358;28;20508;-67
2022/05/14 12:01:12;;;;;;;9.35;3.33;;;22.40;57.00;;;;;;4999694;28;20088;-66
2022/05/14 12:03:44;;;;;;;8.60;3.70;;;22.50;57.20;;;;;;5014105;28;20034;-66
2022/05/14 12:06:42;;;;;;;9.23;3.28;;;22.70;56.80;;;;;;5008698;28;20034;-67
2022/05/14 12:09:38;;;;;;;6.00;2.63;;;22.70;56.90;;;;;;5010271;28;20136;-66
2022/05/14 12:12:33;;;;;;;6.88;3.08;;;22.80;56.80;;;;;;5004782;28;20029;-67
2022/05/14 12:15:11;;;;;;;10.02;4.03;;;22.90;56.00;;;;;;5002920;28;20030;-67
2022/05/14 12:17:37;;;;;;;11.73;3.20;;;22.70;55.80;;;;;;5007732;28;20105;-67
2022/05/14 12:20:04;;;;;;;12.50;4.13;;;22.60;55.80;;;;;;5010879;28;20549;-66
2022/05/14 12:22:30;;;;;;;8.05;4.32;;;22.60;56.00;;;;;;5012354;28;20033;-66
2022/05/14 12:25:07;;;;;;;9.10;3.10;;;22.60;56.10;;;;;;5010118;28;20023;-66
2022/05/14 12:27:44;;;;;;;9.43;3.10;;;22.60;55.80;;;;;;4998892;28;20030;-66
2022/05/14 12:30:12;;;;;;;10.50;3.90;;;22.60;55.80;;;;;;5010156;28;20032;-66
2022/05/14 12:35:30;;;;;;;9.02;3.95;;;22.70;56.10;;;;;;5008160;28;20026;-66
2022/05/14 12:37:58;;;;;;;9.93;3.75;;;22.80;56.00;;;;;;5013253;28;20026;-66
2022/05/14 12:40:30;;;;;;;10.45;3.97;;;23.00;55.90;;;;;;5014171;28;20416;-66
2022/05/14 12:42:56;;;;;;;8.55;3.70;;;23.00;55.20;;;;;;5007819;28;20105;-67
2022/05/14 12:45:40;;;;;;;10.77;3.15;;;23.10;55.40;;;;;;5002322;28;20057;-67
2022/05/14 12:48:07;;;;;;;10.98;3.38;;;23.10;55.30;;;;;;4993183;28;20050;-66
2022/05/14 12:50:33;;;;;;;10.00;4.13;;;23.00;55.00;;;;;;5004443;28;20026;-66
2022/05/14 12:53:11;;;;;;;6.20;3.45;;;22.80;55.40;;;;;;5014317;28;20049;-66
2022/05/14 12:55:46;;;;;;;13.55;3.92;;;22.60;55.10;;;;;;5008109;28;20355;-66
2022/05/14 12:58:13;;;;;;;8.98;3.92;;;22.60;55.30;;;;;;5001768;28;20030;-66
2022/05/14 13:00:40;;;;;;;10.20;3.70;;;22.50;55.10;;;;;;5010217;28;20378;-66
2022/05/14 13:03:24;;;;;;;10.75;4.43;;;22.50;55.30;;;;;;5012480;28;20390;-66
2022/05/14 13:05:55;;;;;;;10.45;4.03;;;22.40;55.20;;;;;;5010279;28;20032;-66
2022/05/14 13:08:24;;;;;;;8.63;3.40;;;22.30;55.90;;;;;;5012013;28;20511;-66
2022/05/14 13:10:56;;;;;;;9.95;3.67;;;22.30;56.00;;;;;;5003599;28;20377;-66
2022/05/14 13:13:35;;;;;;;9.43;3.60;;;22.30;56.10;;;;;;5002828;28;20394;-65
2022/05/14 13:16:08;;;;;;;10.88;3.90;;;22.30;56.10;;;;;;4999278;28;20393;-65